Time;durP1;ratioP1;P1;durP2;ratioP2;P2;SDS_P1;SDS_P2;PMS_P1;PMS_P2;Temp;Humidity;BMP_temperature;BMP_pressure;BME280_temperature;BME280_humidity;BME280_pressure;Samples;Min_cycle;Max_cycle;Signal;HPM_P1;HPM_P2
2022/07/07 00:01:48;;;;;;;10.50;5.80;;;19.10;75.00;;;;;;5003055;28;20037;-73
2022/07/07 00:04:14;;;;;;;10.32;5.35;;;19.00;75.10;;;;;;5007502;28;20060;-73
2022/07/07 00:06:41;;;;;;;8.85;5.50;;;19.10;75.10;;;;;;5000327;28;20034;-73
2022/07/07 00:09:06;;;;;;;8.23;5.70;;;19.10;75.10;;;;;;5008206;28;20053;-73
2022/07/07 00:11:32;;;;;;;9.27;5.55;;;19.10;75.10;;;;;;5007886;28;20034;-73
2022/07/07 00:13:58;;;;;;;8.00;5.57;;;19.10;74.80;;;;;;5003420;28;20054;-73
2022/07/07 00:16:24;;;;;;;10.18;6.00;;;19.10;75.00;;;;;;5003398;28;20121;-73
2022/07/07 00:18:50;;;;;;;9.93;6.13;;;19.10;74.90;;;;;;5002653;28;20121;-72
2022/07/07 00:21:16;;;;;;;10.13;5.90;;;19.10;75.00;;;;;;5006700;28;20034;-73
2022/07/07 00:23:42;;;;;;;10.32;5.32;;;19.10;75.00;;;;;;5007589;28;20089;-73
2022/07/07 00:26:08;;;;;;;10.40;6.03;;;19.10;75.20;;;;;;5006292;28;20037;-73
2022/07/07 00:28:34;;;;;;;11.40;6.82;;;19.10;75.20;;;;;;4997046;28;20117;-73
2022/07/07 00:31:00;;;;;;;10.70;6.40;;;19.00;75.40;;;;;;5014527;28;20490;-73
2022/07/07 00:33:25;;;;;;;9.20;6.28;;;19.10;75.40;;;;;;4998587;28;20084;-73
2022/07/07 00:35:51;;;;;;;12.23;6.70;;;19.10;75.40;;;;;;4995133;28;20034;-73
2022/07/07 00:38:17;;;;;;;10.93;6.47;;;19.10;75.40;;;;;;4999236;28;20043;-73
2022/07/07 00:40:48;;;;;;;11.07;6.38;;;19.10;75.30;;;;;;5002739;28;20483;-71
2022/07/07 00:43:13;;;;;;;9.70;6.18;;;19.10;75.40;;;;;;5012789;28;20030;-72
2022/07/07 00:45:39;;;;;;;11.52;6.78;;;19.00;75.40;;;;;;5012714;28;20041;-72
2022/07/07 00:48:06;;;;;;;11.02;6.90;;;19.10;75.40;;;;;;5001204;28;20112;-73
2022/07/07 00:50:32;;;;;;;11.23;6.57;;;19.00;75.80;;;;;;5013270;28;20053;-73
2022/07/07 00:52:57;;;;;;;11.23;6.43;;;19.00;75.90;;;;;;5011590;28;20034;-73
2022/07/07 00:55:23;;;;;;;12.23;6.55;;;19.00;76.00;;;;;;5003410;28;20049;-73
2022/07/07 00:57:49;;;;;;;11.48;6.68;;;18.90;76.00;;;;;;4997521;28;20022;-73
2022/07/07 01:00:15;;;;;;;11.65;6.97;;;19.00;76.20;;;;;;5004119;28;20121;-73
2022/07/07 01:02:42;;;;;;;11.63;7.38;;;18.90;76.10;;;;;;5003683;28;20092;-73
2022/07/07 01:05:09;;;;;;;13.63;7.85;;;18.80;76.50;;;;;;5011079;28;20034;-73
2022/07/07 01:07:36;;;;;;;10.98;7.93;;;18.80;76.70;;;;;;5008670;28;20121;-73
2022/07/07 01:10:04;;;;;;;11.90;7.65;;;18.80;76.90;;;;;;5003304;28;20053;-74
2022/07/07 01:12:34;;;;;;;13.35;8.82;;;18.90;76.70;;;;;;5012631;28;20030;-73
2022/07/07 01:15:00;;;;;;;13.23;8.52;;;18.80;76.60;;;;;;5005283;28;20039;-73
2022/07/07 01:17:25;;;;;;;13.05;8.68;;;18.90;76.80;;;;;;5008526;28;20068;-73
2022/07/07 01:19:51;;;;;;;11.95;8.38;;;18.90;76.90;;;;;;5000930;28;20497;-73
2022/07/07 01:22:20;;;;;;;12.82;8.68;;;18.90;76.70;;;;;;5009918;28;20066;-73
2022/07/07 01:24:46;;;;;;;14.52;7.65;;;18.90;76.80;;;;;;4993444;28;20034;-73
2022/07/07 01:27:18;;;;;;;12.10;7.85;;;18.90;76.80;;;;;;4992674;28;20453;-73
2022/07/07 01:29:54;;;;;;;14.82;7.72;;;18.90;76.90;;;;;;5000612;28;20049;-72
2022/07/07 01:32:21;;;;;;;11.55;7.10;;;18.90;77.00;;;;;;5002716;28;20038;-73
2022/07/07 01:34:48;;;;;;;14.20;7.30;;;18.90;77.00;;;;;;5006860;28;20041;-72
2022/07/07 01:37:14;;;;;;;11.60;6.35;;;18.90;77.20;;;;;;5008565;28;20116;-72
2022/07/07 01:39:42;;;;;;;12.65;7.30;;;18.90;77.30;;;;;;5001563;28;20030;-73
2022/07/07 01:42:08;;;;;;;11.60;6.50;;;18.80;77.40;;;;;;5010645;28;20073;-73
2022/07/07 01:44:36;;;;;;;10.25;5.60;;;18.80;77.50;;;;;;5010921;28;20109;-73
2022/07/07 01:47:03;;;;;;;11.13;6.55;;;19.00;77.30;;;;;;5000568;28;20038;-74
2022/07/07 01:49:30;;;;;;;11.25;6.40;;;19.00;77.10;;;;;;5010605;28;20047;-72
2022/07/07 01:51:56;;;;;;;12.32;6.43;;;19.00;77.30;;;;;;5000857;28;20030;-72
2022/07/07 01:54:22;;;;;;;15.13;6.20;;;19.00;77.20;;;;;;5011728;28;20045;-73
2022/07/07 01:56:48;;;;;;;11.35;6.13;;;19.00;77.20;;;;;;5003613;28;20030;-73
2022/07/07 01:59:13;;;;;;;10.15;5.30;;;19.00;77.20;;;;;;4994616;28;20184;-73
2022/07/07 02:01:39;;;;;;;10.70;5.68;;;18.90;77.40;;;;;;5007747;28;20121;-72
2022/07/07 02:04:06;;;;;;;10.43;5.25;;;18.90;77.50;;;;;;5006118;28;20030;-73
2022/07/07 02:06:32;;;;;;;11.52;4.93;;;18.90;77.50;;;;;;5011382;28;20121;-72
2022/07/07 02:08:58;;;;;;;10.95;5.45;;;18.90;77.50;;;;;;5007482;28;20425;-73
2022/07/07 02:11:25;;;;;;;9.27;5.15;;;18.80;77.60;;;;;;5008007;28;20033;-73
2022/07/07 02:13:52;;;;;;;9.18;5.07;;;18.90;77.60;;;;;;5005174;28;20037;-73
2022/07/07 02:16:20;;;;;;;9.55;4.95;;;18.90;77.60;;;;;;5009760;28;20037;-73
2022/07/07 02:18:48;;;;;;;12.80;5.05;;;18.90;77.60;;;;;;5007619;28;20049;-73
2022/07/07 02:21:15;;;;;;;9.35;4.97;;;18.90;77.70;;;;;;4999286;28;20184;-72
2022/07/07 02:23:45;;;;;;;13.43;4.75;;;18.90;77.60;;;;;;5008006;28;20042;-73
2022/07/07 02:26:11;;;;;;;8.73;4.38;;;19.00;77.50;;;;;;5004252;28;20052;-73
2022/07/07 02:28:39;;;;;;;11.35;4.72;;;18.90;77.70;;;;;;4992895;28;20058;-72
2022/07/07 02:31:04;;;;;;;9.68;4.55;;;18.90;77.40;;;;;;5004914;28;20072;-73
2022/07/07 02:33:30;;;;;;;11.23;4.43;;;18.90;77.60;;;;;;5011337;28;20549;-73
2022/07/07 02:35:57;;;;;;;9.60;4.68;;;18.90;77.70;;;;;;5005878;28;20030;-73
2022/07/07 02:38:23;;;;;;;14.80;4.93;;;19.00;77.50;;;;;;4998446;28;20097;-73
2022/07/07 02:40:50;;;;;;;11.32;4.63;;;18.90;77.30;;;;;;4994911;28;20030;-72
2022/07/07 02:43:16;;;;;;;10.10;5.25;;;18.90;77.40;;;;;;5007427;28;20117;-73
2022/07/07 02:45:44;;;;;;;11.20;4.75;;;18.90;77.50;;;;;;5008287;28;20080;-73
2022/07/07 02:48:11;;;;;;;9.57;4.60;;;18.90;77.60;;;;;;4996345;28;20057;-72
2022/07/07 02:50:38;;;;;;;10.95;4.53;;;18.90;77.60;;;;;;5009234;28;20516;-73
2022/07/07 02:53:05;;;;;;;8.70;5.28;;;18.80;77.80;;;;;;5006307;28;20046;-73
2022/07/07 02:55:31;;;;;;;11.02;4.90;;;18.90;78.00;;;;;;4992396;28;20030;-73
2022/07/07 02:57:58;;;;;;;9.25;4.45;;;18.80;78.10;;;;;;5003925;28;20466;-72
2022/07/07 03:00:24;;;;;;;11.02;5.55;;;18.80;78.20;;;;;;5008878;28;20134;-73
2022/07/07 03:02:49;;;;;;;13.65;4.70;;;18.80;78.40;;;;;;4994968;28;20038;-72
2022/07/07 03:05:15;;;;;;;11.50;4.80;;;18.80;78.40;;;;;;5001361;28;20045;-72
2022/07/07 03:07:41;;;;;;;10.20;4.65;;;18.70;78.60;;;;;;4997697;28;20497;-72
2022/07/07 03:10:07;;;;;;;9.55;4.75;;;18.80;78.40;;;;;;4993727;28;20041;-73
2022/07/07 03:12:33;;;;;;;12.77;4.90;;;18.80;78.50;;;;;;5002827;28;20121;-73
2022/07/07 03:15:00;;;;;;;12.73;5.32;;;18.80;78.50;;;;;;4992882;28;20109;-72
2022/07/07 03:17:25;;;;;;;11.90;4.90;;;18.80;78.40;;;;;;5004300;28;20050;-72
2022/07/07 03:19:51;;;;;;;10.68;5.00;;;18.80;78.50;;;;;;5001808;28;20089;-72
2022/07/07 03:22:17;;;;;;;11.32;4.82;;;18.80;78.50;;;;;;5002097;28;20478;-72
2022/07/07 03:24:43;;;;;;;11.20;4.63;;;18.80;78.60;;;;;;5002730;28;20501;-73
2022/07/07 03:27:08;;;;;;;9.95;4.85;;;18.70;78.30;;;;;;5000074;28;20117;-73
2022/07/07 03:29:34;;;;;;;13.15;4.50;;;18.70;78.40;;;;;;5009471;28;20046;-73
2022/07/07 03:32:00;;;;;;;10.82;4.25;;;18.80;78.20;;;;;;5005042;28;20513;-72
2022/07/07 03:34:26;;;;;;;10.18;4.05;;;18.70;77.90;;;;;;5009866;28;20033;-72
2022/07/07 03:36:52;;;;;;;10.07;4.18;;;18.70;77.60;;;;;;5007109;28;20051;-72
2022/07/07 03:39:18;;;;;;;9.73;3.45;;;18.70;77.10;;;;;;5005422;28;20175;-72
2022/07/07 03:41:43;;;;;;;9.15;3.05;;;18.70;76.80;;;;;;4990099;28;20125;-73
2022/07/07 03:44:09;;;;;;;8.45;2.70;;;18.80;76.60;;;;;;5006813;28;20147;-73
2022/07/07 03:46:35;;;;;;;7.05;3.08;;;18.80;76.20;;;;;;4993843;28;20045;-72
2022/07/07 03:49:00;;;;;;;7.15;2.53;;;18.90;76.10;;;;;;5008864;28;20546;-72
2022/07/07 03:51:26;;;;;;;5.60;2.75;;;18.90;75.90;;;;;;5006841;28;20509;-72
2022/07/07 03:53:52;;;;;;;6.68;2.70;;;18.90;75.90;;;;;;4999212;28;20027;-72
2022/07/07 03:56:18;;;;;;;6.60;2.85;;;18.90;75.90;;;;;;4996664;28;20077;-72
2022/07/07 03:58:43;;;;;;;7.18;2.55;;;18.90;76.10;;;;;;5007822;28;20046;-72
2022/07/07 04:01:09;;;;;;;6.15;2.63;;;18.90;76.10;;;;;;4996793;28;20031;-72
2022/07/07 04:03:34;;;;;;;5.93;2.20;;;18.90;75.90;;;;;;5002214;28;20542;-72
2022/07/07 04:06:00;;;;;;;5.93;2.03;;;18.90;75.80;;;;;;5004330;28;20046;-73
2022/07/07 04:08:26;;;;;;;5.10;2.10;;;18.90;75.90;;;;;;5006195;28;20033;-72
2022/07/07 04:10:52;;;;;;;5.70;2.33;;;18.90;75.70;;;;;;5009369;28;20149;-72
2022/07/07 04:13:17;;;;;;;7.18;2.20;;;18.90;75.90;;;;;;5004998;28;20474;-72
2022/07/07 04:15:43;;;;;;;8.05;3.00;;;18.90;75.90;;;;;;5001471;28;20065;-72
2022/07/07 04:18:09;;;;;;;5.03;2.20;;;18.90;76.00;;;;;;4999108;28;20112;-73
2022/07/07 04:20:34;;;;;;;4.15;1.83;;;18.90;75.80;;;;;;5002655;28;20042;-73
2022/07/07 04:23:00;;;;;;;7.20;2.13;;;19.00;75.70;;;;;;4999806;28;20470;-74
2022/07/07 04:25:26;;;;;;;8.45;2.72;;;19.00;75.70;;;;;;4998918;28;20977;-73
2022/07/07 04:27:51;;;;;;;6.13;1.95;;;19.00;75.80;;;;;;4997114;28;20035;-73
2022/07/07 04:30:17;;;;;;;5.75;2.55;;;19.00;75.80;;;;;;5009134;28;20421;-73
2022/07/07 04:32:43;;;;;;;4.85;1.98;;;18.90;75.50;;;;;;5001122;28;20525;-73
2022/07/07 04:35:09;;;;;;;5.22;1.98;;;19.00;75.20;;;;;;5000276;28;20088;-76
2022/07/07 04:37:35;;;;;;;6.05;1.95;;;19.00;75.20;;;;;;5003607;28;20026;-76
2022/07/07 04:40:03;;;;;;;5.47;2.10;;;19.00;75.00;;;;;;5008545;28;20065;-76
2022/07/07 04:42:29;;;;;;;5.72;2.10;;;19.00;75.10;;;;;;4999672;28;20105;-76
2022/07/07 04:44:55;;;;;;;7.03;2.50;;;19.00;75.30;;;;;;5009762;28;20090;-76
2022/07/07 04:47:20;;;;;;;7.85;2.30;;;19.00;75.10;;;;;;5006646;28;20062;-76
2022/07/07 04:49:46;;;;;;;7.55;2.47;;;19.00;74.90;;;;;;4995142;28;20057;-76
2022/07/07 04:52:11;;;;;;;7.50;2.10;;;19.10;74.70;;;;;;5008859;28;20121;-77
2022/07/07 04:54:37;;;;;;;6.95;2.47;;;19.30;74.10;;;;;;5008224;28;20478;-76
2022/07/07 04:57:03;;;;;;;5.95;2.13;;;19.40;73.70;;;;;;4995293;28;20051;-77
2022/07/07 04:59:29;;;;;;;7.05;1.80;;;19.40;73.30;;;;;;5004712;28;20038;-76
2022/07/07 05:01:55;;;;;;;8.00;2.25;;;19.40;73.60;;;;;;5001035;28;20026;-76
2022/07/07 05:04:20;;;;;;;8.48;2.65;;;19.20;73.90;;;;;;4994385;28;20034;-76
2022/07/07 05:06:46;;;;;;;7.25;2.75;;;19.20;74.30;;;;;;5006930;28;20386;-75
2022/07/07 05:09:12;;;;;;;8.23;2.17;;;19.10;74.60;;;;;;5000107;28;20038;-76
2022/07/07 05:11:37;;;;;;;6.65;2.28;;;19.00;74.90;;;;;;4993948;28;20031;-75
2022/07/07 05:14:03;;;;;;;8.60;2.35;;;19.10;74.60;;;;;;5005914;28;20045;-75
2022/07/07 05:16:29;;;;;;;6.28;2.20;;;19.10;74.90;;;;;;5003552;28;20046;-75
2022/07/07 05:18:55;;;;;;;5.57;2.40;;;19.00;74.90;;;;;;4993817;28;20038;-75
2022/07/07 05:21:21;;;;;;;7.38;2.55;;;19.00;75.30;;;;;;5007496;28;20045;-75
2022/07/07 05:23:47;;;;;;;8.25;2.97;;;19.00;75.20;;;;;;4995201;28;20541;-76
2022/07/07 05:26:13;;;;;;;5.53;2.15;;;19.00;75.20;;;;;;5000723;28;20038;-76
2022/07/07 05:28:41;;;;;;;7.55;2.90;;;19.10;75.30;;;;;;5000175;28;20070;-76
2022/07/07 05:31:12;;;;;;;8.77;2.97;;;19.00;75.40;;;;;;5007981;28;20038;-76
2022/07/07 05:33:37;;;;;;;9.88;2.70;;;19.00;75.60;;;;;;5002571;28;20426;-76
2022/07/07 05:36:04;;;;;;;6.65;2.42;;;18.80;77.10;;;;;;4994892;28;20488;-77
2022/07/07 05:38:30;;;;;;;6.85;2.47;;;18.60;79.20;;;;;;5004330;28;20034;-77
2022/07/07 05:40:56;;;;;;;5.65;1.98;;;18.40;80.30;;;;;;5003346;28;20030;-76
2022/07/07 05:43:22;;;;;;;3.33;1.10;;;18.20;80.90;;;;;;5010436;28;20033;-76
2022/07/07 05:45:47;;;;;;;4.85;1.50;;;18.00;81.20;;;;;;5007048;28;20138;-76
2022/07/07 05:48:13;;;;;;;2.28;1.13;;;17.70;82.40;;;;;;5007131;28;20038;-76
2022/07/07 05:50:39;;;;;;;3.22;1.10;;;17.60;82.80;;;;;;5009625;28;20563;-76
2022/07/07 05:53:05;;;;;;;4.57;1.15;;;17.40;83.40;;;;;;5010335;28;20544;-77
2022/07/07 05:55:31;;;;;;;3.00;1.05;;;17.30;83.70;;;;;;5012278;28;20034;-76
2022/07/07 05:57:57;;;;;;;2.25;1.20;;;17.30;84.20;;;;;;4997724;28;20027;-76
2022/07/07 06:00:23;;;;;;;4.15;1.10;;;17.30;83.90;;;;;;4995526;28;20034;-76
2022/07/07 06:02:49;;;;;;;4.75;1.10;;;17.30;83.10;;;;;;5015587;28;20057;-76
2022/07/07 06:05:15;;;;;;;2.22;0.93;;;17.40;83.10;;;;;;5004584;28;20050;-76
2022/07/07 06:07:40;;;;;;;5.15;1.20;;;17.50;81.60;;;;;;5008680;28;20140;-76
2022/07/07 06:10:07;;;;;;;1.95;0.95;;;17.60;81.70;;;;;;5010049;28;20450;-76
2022/07/07 06:12:33;;;;;;;3.20;1.00;;;17.90;81.20;;;;;;5011334;28;20417;-76
2022/07/07 06:14:59;;;;;;;1.95;0.80;;;18.10;80.00;;;;;;5007348;28;20042;-76
2022/07/07 06:17:25;;;;;;;2.88;1.02;;;18.10;79.50;;;;;;5010869;28;20121;-75
2022/07/07 06:19:50;;;;;;;4.47;1.30;;;18.40;78.80;;;;;;5010020;28;20038;-76
2022/07/07 06:22:16;;;;;;;3.67;0.95;;;18.50;78.60;;;;;;5005811;28;20041;-75
2022/07/07 06:24:42;;;;;;;3.97;1.10;;;18.60;77.80;;;;;;4995217;28;20030;-76
2022/07/07 06:27:08;;;;;;;3.10;1.10;;;18.60;77.70;;;;;;5008479;28;20038;-75
2022/07/07 06:29:33;;;;;;;5.25;1.17;;;18.90;76.60;;;;;;5003234;28;20048;-76
2022/07/07 06:31:59;;;;;;;3.97;1.10;;;18.90;76.20;;;;;;5002145;28;20498;-76
2022/07/07 06:34:25;;;;;;;5.15;1.20;;;18.80;76.60;;;;;;4992610;28;20034;-76
2022/07/07 06:36:50;;;;;;;4.15;1.20;;;19.00;76.10;;;;;;5005181;28;20081;-76
2022/07/07 06:39:16;;;;;;;6.35;1.30;;;19.00;76.20;;;;;;5005683;28;20425;-75
2022/07/07 06:41:42;;;;;;;3.10;1.00;;;19.10;76.20;;;;;;5010873;28;20025;-75
2022/07/07 06:44:09;;;;;;;2.55;1.08;;;19.30;75.90;;;;;;5002861;28;20128;-75
2022/07/07 06:46:35;;;;;;;3.97;1.20;;;19.20;75.10;;;;;;5002083;28;20378;-76
2022/07/07 06:49:01;;;;;;;6.22;1.30;;;19.50;74.70;;;;;;5005656;28;20037;-76
2022/07/07 06:51:27;;;;;;;7.00;1.27;;;19.70;73.40;;;;;;5005226;28;20056;-76
2022/07/07 06:53:53;;;;;;;4.65;1.45;;;19.80;72.90;;;;;;5005541;28;20470;-76
2022/07/07 06:56:19;;;;;;;5.53;1.40;;;19.80;72.10;;;;;;5002416;28;20479;-76
2022/07/07 06:58:45;;;;;;;5.25;1.20;;;19.70;71.10;;;;;;5010178;28;20387;-76
2022/07/07 07:01:10;;;;;;;5.15;1.25;;;19.60;71.50;;;;;;5001978;28;20049;-76
2022/07/07 07:03:36;;;;;;;6.78;1.65;;;19.60;71.80;;;;;;5006999;28;20046;-75
2022/07/07 07:06:02;;;;;;;5.75;1.20;;;19.70;71.90;;;;;;5003750;28;20038;-76
2022/07/07 07:08:28;;;;;;;6.13;1.35;;;19.80;70.50;;;;;;5002079;28;20061;-75
2022/07/07 07:10:53;;;;;;;5.97;1.77;;;19.90;68.50;;;;;;4995933;28;20065;-77
2022/07/07 07:13:19;;;;;;;4.75;1.33;;;19.90;67.20;;;;;;4991294;28;20035;-75
2022/07/07 07:15:45;;;;;;;9.80;1.40;;;19.70;66.00;;;;;;5007814;28;20493;-75
2022/07/07 07:18:11;;;;;;;3.85;1.30;;;19.80;66.30;;;;;;4994470;28;20030;-75
2022/07/07 07:20:37;;;;;;;4.35;1.20;;;19.90;65.30;;;;;;5005401;28;20101;-76
2022/07/07 07:23:03;;;;;;;4.10;1.25;;;20.10;65.10;;;;;;5009079;28;20084;-75
2022/07/07 07:25:29;;;;;;;7.13;1.50;;;20.00;64.30;;;;;;5002844;28;20467;-74
2022/07/07 07:27:54;;;;;;;7.78;2.13;;;20.10;64.70;;;;;;5008419;28;20164;-75
2022/07/07 07:30:20;;;;;;;7.75;1.75;;;20.20;63.80;;;;;;5010429;28;20046;-75
2022/07/07 07:32:45;;;;;;;6.80;1.80;;;20.50;64.20;;;;;;4995608;28;20034;-74
2022/07/07 07:35:12;;;;;;;4.95;1.60;;;20.50;62.90;;;;;;5000877;28;20049;-77
2022/07/07 07:37:40;;;;;;;7.70;1.80;;;20.50;63.70;;;;;;5005136;28;20121;-76
2022/07/07 07:40:08;;;;;;;7.20;2.00;;;20.50;62.70;;;;;;5005646;28;20131;-76
2022/07/07 07:42:33;;;;;;;6.63;1.58;;;20.20;63.30;;;;;;5006228;28;20038;-76
2022/07/07 07:45:11;;;;;;;4.47;1.40;;;20.30;63.40;;;;;;5006365;28;20052;-75
2022/07/07 07:47:42;;;;;;;8.15;1.70;;;20.20;62.90;;;;;;4997199;28;20096;-76
2022/07/07 07:50:11;;;;;;;7.72;1.88;;;20.10;63.40;;;;;;5005100;28;20124;-76
2022/07/07 07:52:39;;;;;;;6.47;1.90;;;20.00;63.40;;;;;;5008689;28;20038;-75
2022/07/07 07:55:06;;;;;;;6.80;1.85;;;19.90;63.60;;;;;;5000736;28;20054;-75
2022/07/07 07:57:32;;;;;;;6.72;1.70;;;20.00;64.20;;;;;;4994832;28;20034;-76
2022/07/07 07:59:57;;;;;;;8.13;1.95;;;20.20;63.40;;;;;;5005654;28;20069;-76
2022/07/07 08:02:23;;;;;;;7.05;1.90;;;20.20;64.00;;;;;;5006799;28;20030;-76
2022/07/07 08:04:49;;;;;;;7.30;1.88;;;20.20;63.50;;;;;;5006507;28;20038;-76
2022/07/07 08:07:14;;;;;;;7.00;1.67;;;20.40;63.70;;;;;;5009118;28;20038;-76
2022/07/07 08:09:40;;;;;;;7.78;1.65;;;20.40;62.30;;;;;;4994519;28;20443;-75
2022/07/07 08:12:06;;;;;;;6.45;1.60;;;20.50;63.20;;;;;;5007756;28;20037;-75
2022/07/07 08:14:32;;;;;;;4.85;1.48;;;20.50;62.80;;;;;;5008101;28;20041;-76
2022/07/07 08:16:57;;;;;;;6.93;1.42;;;20.60;62.20;;;;;;4995997;28;20044;-76
2022/07/07 08:19:23;;;;;;;6.10;1.40;;;20.50;61.80;;;;;;5008202;28;20037;-75
2022/07/07 08:21:50;;;;;;;5.55;1.70;;;20.40;61.70;;;;;;5007299;28;20129;-76
2022/07/07 08:24:17;;;;;;;6.85;1.60;;;20.50;62.40;;;;;;5003212;28;20117;-76
2022/07/07 08:26:43;;;;;;;6.72;1.40;;;20.70;62.30;;;;;;4995418;28;20478;-76
2022/07/07 08:29:08;;;;;;;5.65;1.40;;;21.30;61.30;;;;;;4999889;28;20045;-76
2022/07/07 08:31:34;;;;;;;9.25;1.50;;;21.80;60.30;;;;;;5003239;28;20039;-76
2022/07/07 08:34:00;;;;;;;5.03;1.38;;;21.80;60.00;;;;;;5003557;28;20042;-76
2022/07/07 08:36:25;;;;;;;6.45;1.20;;;21.30;59.20;;;;;;4992966;28;20394;-75
2022/07/07 08:38:51;;;;;;;6.82;1.50;;;21.00;60.60;;;;;;5005206;28;20156;-76
2022/07/07 08:41:17;;;;;;;6.82;1.45;;;20.70;61.00;;;;;;5003369;28;20485;-76
2022/07/07 08:43:43;;;;;;;6.95;1.30;;;20.60;62.40;;;;;;4995746;28;20031;-75
2022/07/07 08:46:11;;;;;;;5.40;1.40;;;20.50;62.20;;;;;;4997154;28;20506;-75
2022/07/07 08:48:37;;;;;;;6.15;1.60;;;20.30;63.50;;;;;;4995972;28;20432;-75
2022/07/07 08:51:03;;;;;;;8.07;1.73;;;20.30;63.50;;;;;;4994323;28;20046;-75
2022/07/07 08:53:33;;;;;;;7.65;1.50;;;20.10;64.70;;;;;;5006595;28;20140;-75
2022/07/07 08:56:03;;;;;;;7.18;1.73;;;20.10;65.00;;;;;;5003607;28;20032;-75
2022/07/07 08:58:29;;;;;;;7.65;1.73;;;19.90;64.60;;;;;;4993844;28;20053;-75
2022/07/07 09:00:54;;;;;;;8.18;1.40;;;19.90;64.90;;;;;;5000612;28;20030;-75
2022/07/07 09:03:20;;;;;;;6.07;1.48;;;19.90;64.60;;;;;;4996483;28;20049;-75
2022/07/07 09:05:46;;;;;;;6.97;1.50;;;20.10;65.40;;;;;;5013464;28;20030;-75
2022/07/07 09:08:17;;;;;;;6.65;1.45;;;20.10;65.50;;;;;;5007596;28;20544;-76
2022/07/07 09:10:44;;;;;;;5.82;1.60;;;20.00;65.40;;;;;;5006306;28;20057;-76
2022/07/07 09:13:28;;;;;;;8.60;1.80;;;19.60;67.10;;;;;;4999724;28;20478;-75
2022/07/07 09:15:56;;;;;;;7.28;1.85;;;19.20;70.20;;;;;;5006345;28;20133;-74
2022/07/07 09:18:27;;;;;;;4.10;1.20;;;18.50;71.40;;;;;;5001908;28;20158;-74
2022/07/07 09:20:53;;;;;;;5.40;1.10;;;18.10;71.50;;;;;;5006472;28;20129;-74
2022/07/07 09:23:19;;;;;;;4.25;0.93;;;18.00;71.80;;;;;;5010518;28;20169;-74
2022/07/07 09:25:44;;;;;;;3.15;0.98;;;17.80;72.20;;;;;;5005449;28;20045;-74
2022/07/07 09:28:10;;;;;;;2.40;0.88;;;17.80;71.60;;;;;;4999034;28;20031;-75
2022/07/07 09:30:43;;;;;;;5.65;0.95;;;17.90;71.20;;;;;;5008024;28;20552;-74
2022/07/07 09:33:14;;;;;;;3.20;0.90;;;18.00;69.60;;;;;;4992620;28;20077;-74
2022/07/07 09:38:31;;;;;;;4.30;1.08;;;18.40;67.80;;;;;;5009988;28;20044;-74
2022/07/07 09:41:05;;;;;;;2.03;0.82;;;18.70;67.20;;;;;;4992569;28;20034;-74
2022/07/07 09:43:53;;;;;;;5.38;1.00;;;18.80;66.30;;;;;;5000904;28;20038;-74
2022/07/07 09:46:23;;;;;;;2.85;1.00;;;19.10;66.40;;;;;;5003745;28;20501;-74
2022/07/07 09:48:54;;;;;;;6.13;2.00;;;19.00;67.60;;;;;;5011248;28;20038;-74
2022/07/07 09:51:32;;;;;;;3.85;1.38;;;19.00;67.90;;;;;;5009842;28;20061;-74
2022/07/07 09:54:14;;;;;;;5.03;1.45;;;19.20;68.20;;;;;;5000637;28;20037;-73
2022/07/07 09:56:42;;;;;;;6.80;1.80;;;19.10;68.20;;;;;;5009899;28;20742;-75
2022/07/07 09:59:13;;;;;;;4.13;1.30;;;19.20;68.50;;;;;;5011696;28;20061;-74
2022/07/07 10:01:43;;;;;;;8.48;1.90;;;19.30;68.30;;;;;;5008540;28;20049;-75
2022/07/07 10:04:11;;;;;;;7.13;1.70;;;19.30;68.10;;;;;;5001612;28;20046;-74
2022/07/07 10:06:39;;;;;;;7.22;1.65;;;19.30;68.20;;;;;;5003356;28;20093;-74
2022/07/07 10:09:07;;;;;;;7.75;1.90;;;19.40;68.10;;;;;;5011324;28;20092;-74
2022/07/07 10:11:46;;;;;;;8.77;1.92;;;19.30;68.10;;;;;;5009004;28;20117;-74
2022/07/07 10:14:24;;;;;;;7.78;1.98;;;19.40;68.00;;;;;;5000786;28;20129;-75
2022/07/07 10:16:51;;;;;;;6.97;2.20;;;19.60;67.00;;;;;;5007214;28;20394;-74
2022/07/07 10:19:19;;;;;;;8.95;1.95;;;19.50;66.70;;;;;;5005668;28;20049;-74
2022/07/07 10:21:56;;;;;;;8.50;2.03;;;19.30;68.00;;;;;;5002663;28;20390;-74
2022/07/07 10:24:27;;;;;;;9.52;2.10;;;18.90;69.50;;;;;;4991089;28;20109;-74
2022/07/07 10:26:55;;;;;;;7.35;2.10;;;18.70;71.80;;;;;;4999979;28;20026;-75
2022/07/07 10:29:42;;;;;;;6.22;2.17;;;18.50;75.00;;;;;;5002958;28;20078;-74
2022/07/07 10:32:13;;;;;;;9.57;2.40;;;18.30;77.20;;;;;;5009058;28;20490;-74
2022/07/07 10:34:47;;;;;;;5.25;1.35;;;17.60;78.90;;;;;;5010560;28;20085;-74
2022/07/07 10:37:12;;;;;;;5.88;1.75;;;17.40;79.90;;;;;;4998274;28;20098;-74
2022/07/07 10:39:42;;;;;;;3.88;1.70;;;17.40;80.00;;;;;;5007144;28;20042;-74
2022/07/07 10:42:17;;;;;;;4.55;1.60;;;17.10;80.10;;;;;;5001721;28;20389;-74
2022/07/07 10:44:44;;;;;;;;;;;17.10;80.10;;;;;;4996284;28;20038;-75
2022/07/07 10:47:12;;;;;;;7.05;1.75;;;17.30;80.50;;;;;;5007215;28;19964;-75
2022/07/07 10:49:38;;;;;;;5.88;1.55;;;17.70;78.90;;;;;;5005218;28;20129;-75
2022/07/07 10:52:25;;;;;;;4.53;2.00;;;17.90;78.50;;;;;;5003467;28;20130;-75
2022/07/07 10:54:59;;;;;;;4.90;1.60;;;18.20;77.80;;;;;;4991257;28;20041;-75
2022/07/07 10:57:38;;;;;;;6.70;1.52;;;18.50;76.40;;;;;;4990503;28;20088;-75
2022/07/07 11:00:16;;;;;;;5.45;1.38;;;19.00;75.50;;;;;;4998806;28;20085;-75
2022/07/07 11:02:47;;;;;;;6.57;1.92;;;19.10;73.70;;;;;;5004331;28;20053;-74
2022/07/07 11:05:13;;;;;;;8.75;1.80;;;19.30;73.40;;;;;;4995503;28;20034;-75
2022/07/07 11:07:43;;;;;;;7.07;1.73;;;19.60;72.00;;;;;;5010466;28;20044;-75
2022/07/07 11:10:11;;;;;;;8.23;1.80;;;20.00;71.00;;;;;;5007747;28;20464;-75
2022/07/07 11:12:47;;;;;;;6.03;1.38;;;20.00;69.80;;;;;;5005695;28;20034;-75
2022/07/07 11:15:20;;;;;;;6.28;2.03;;;20.10;69.00;;;;;;4998940;28;20034;-74
2022/07/07 11:18:06;;;;;;;8.88;2.10;;;19.80;69.90;;;;;;4999095;28;20050;-74
2022/07/07 11:20:32;;;;;;;7.65;2.05;;;19.60;70.50;;;;;;5005993;28;20048;-74
2022/07/07 11:23:13;;;;;;;6.60;1.75;;;19.40;72.00;;;;;;5005418;28;20034;-74
2022/07/07 11:25:40;;;;;;;8.82;1.58;;;18.80;72.40;;;;;;5006909;28;20077;-74
2022/07/07 11:28:08;;;;;;;4.60;1.08;;;18.40;75.40;;;;;;4999153;28;20038;-74
2022/07/07 11:30:35;;;;;;;4.78;1.30;;;18.10;75.80;;;;;;5006066;28;20119;-75
2022/07/07 11:33:02;;;;;;;5.55;1.25;;;18.20;75.50;;;;;;4996494;28;20045;-75
2022/07/07 11:35:31;;;;;;;6.63;1.50;;;18.60;75.10;;;;;;5001093;28;20111;-75
2022/07/07 11:37:58;;;;;;;6.75;1.83;;;18.90;73.60;;;;;;5009167;28;20474;-75
2022/07/07 11:40:24;;;;;;;3.28;1.10;;;19.10;72.70;;;;;;5002288;28;20034;-75
2022/07/07 11:42:50;;;;;;;3.25;1.00;;;19.50;72.30;;;;;;5003674;28;20035;-75
2022/07/07 11:45:19;;;;;;;7.18;1.95;;;19.60;72.60;;;;;;4999227;28;20029;-75
2022/07/07 11:47:49;;;;;;;5.68;1.75;;;19.40;73.10;;;;;;5001696;28;20037;-75
2022/07/07 11:50:15;;;;;;;4.13;1.40;;;19.10;74.90;;;;;;5008292;28;20054;-75
2022/07/07 11:52:48;;;;;;;4.88;1.33;;;18.50;76.50;;;;;;4998865;28;20040;-75
2022/07/07 11:55:17;;;;;;;6.57;1.75;;;18.30;77.10;;;;;;5002248;28;20088;-76
2022/07/07 11:57:49;;;;;;;5.97;1.95;;;17.90;78.90;;;;;;5008468;28;20158;-74
2022/07/07 12:00:20;;;;;;;9.70;2.00;;;17.90;79.20;;;;;;5007972;28;20053;-75
2022/07/07 12:02:48;;;;;;;7.47;1.85;;;18.00;77.40;;;;;;5001523;28;20084;-75
2022/07/07 12:05:18;;;;;;;6.03;1.85;;;18.20;77.10;;;;;;5007400;28;20045;-75
2022/07/07 12:07:51;;;;;;;5.95;1.70;;;18.60;76.50;;;;;;5009099;28;20141;-75
2022/07/07 12:10:29;;;;;;;9.32;1.80;;;19.10;74.90;;;;;;5008401;28;20096;-75
2022/07/07 12:12:58;;;;;;;6.85;1.83;;;19.60;71.90;;;;;;5007647;28;20053;-75
2022/07/07 12:15:27;;;;;;;9.75;1.83;;;19.90;71.90;;;;;;5000087;28;20036;-75
2022/07/07 12:17:53;;;;;;;6.80;1.77;;;20.50;69.40;;;;;;5003081;28;20366;-75
2022/07/07 12:20:20;;;;;;;8.48;1.83;;;20.60;68.70;;;;;;5009522;28;20044;-75
2022/07/07 12:22:54;;;;;;;5.63;1.25;;;20.80;66.50;;;;;;5000980;28;20030;-75
2022/07/07 12:25:22;;;;;;;4.97;1.65;;;20.90;67.00;;;;;;5004815;28;20033;-75
2022/07/07 12:28:03;;;;;;;5.93;1.60;;;20.80;65.40;;;;;;5010315;28;20057;-75
2022/07/07 12:30:31;;;;;;;5.82;1.73;;;21.10;66.00;;;;;;5013674;28;20130;-75
2022/07/07 12:32:57;;;;;;;6.13;1.33;;;21.00;65.10;;;;;;5004056;28;20038;-75
2022/07/07 12:35:38;;;;;;;7.60;2.30;;;20.60;64.80;;;;;;5009035;28;20030;-75
2022/07/07 12:38:07;;;;;;;10.00;2.10;;;19.90;66.00;;;;;;5000277;28;20381;-75
2022/07/07 12:40:39;;;;;;;10.65;2.42;;;19.10;68.20;;;;;;5010125;28;20140;-75
2022/07/07 12:43:12;;;;;;;8.35;2.30;;;18.90;69.00;;;;;;5003106;28;20066;-75
2022/07/07 12:45:42;;;;;;;8.60;2.38;;;19.00;69.20;;;;;;5014080;28;20470;-75
2022/07/07 12:48:17;;;;;;;9.57;2.35;;;19.10;68.60;;;;;;4996585;28;20482;-74
2022/07/07 12:50:44;;;;;;;11.05;2.17;;;19.20;68.60;;;;;;5005704;28;20046;-75